Ashley, Indiana
Current Conditions -  °F | °C
As of 4:35 PM on Sunday 23 Nov 2014 (Local Time) from KANQ Reporting Station
Overcast Overcast  
Wind Chill: 10°   Ceiling: 1500
Heat Index: 10°   Visibility: 2.5mi
Dew Point:   Wind: 7mph
Humidity: 66%   Direction: 140°SE
Pressure: 29.61"   Gusts: NA
Location:  41.53°N, 85.07°W
Report Text: KANQ 232135Z AUTO 14006KT 2 1/2SM FEW005 BKN015 OVC023 10/04 A2961 RMK
Loading
Personal Weather Stations






























Interactive Weather Map New forecast layout! Learn more

10-Day Weather Forecast

Advertisements
Track Severe Weather on mobile